Time;durP1;ratioP1;P1;durP2;ratioP2;P2;SDS_P1;SDS_P2;PMS_P1;PMS_P2;Temp;Humidity;BMP_temperature;BMP_pressure;BME280_temperature;BME280_humidity;BME280_pressure;Samples;Min_cycle;Max_cycle;Signal;HPM_P1;HPM_P2
2024/02/11 00:00:04;;;;;;;;;;;;;;;;;;344352;28;1090;-79
2024/02/11 00:00:14;;;;;;;;;;;;;;;;;;344144;28;966;-79
2024/02/11 00:00:24;;;;;;;;;;;;;;;;;;344295;28;1187;-78
2024/02/11 00:00:35;;;;;;;;;;;;;;;;;;343715;28;1078;-79
2024/02/11 00:00:45;;;;;;;;;;;;;;;;;;343043;28;1002;-79
2024/02/11 00:00:55;;;;;;;;;;;;;;;;;;341477;29;982;-79
2024/02/11 00:01:08;;;;;;;;;;;;;;;;;;341667;28;805;-79
2024/02/11 00:01:18;;;;;;;;;;;;;;;;;;340377;29;1046;-79
2024/02/11 00:01:28;;;;;;;;;;;;;;;;;;339682;29;994;-78
2024/02/11 00:01:38;;;;;;;;;;;;;;;;;;340265;29;852;-79
2024/02/11 00:01:49;;;;;;;;;;;;;;;;;;340420;29;924;-79
2024/02/11 00:01:59;;;;;;;;;;;;;;;;;;342802;28;1280;-79
2024/02/11 00:02:09;;;;;;;;;;;;;;;;;;343020;28;991;-78
2024/02/11 00:02:19;;;;;;;;;;;;;;;;;;344007;28;1105;-79
2024/02/11 00:02:34;;;;;;;;;;;;;;;;;;342889;28;982;-78
2024/02/11 00:02:44;;;;;;;;;;;;;;;;;;341650;28;959;-79
2024/02/11 00:02:56;;;;;;;;;;;;;;;;;;342864;28;1057;-79
2024/02/11 00:03:07;;;;;;;;;;;;;;;;;;344429;28;800;-79
2024/02/11 00:03:25;;;;;;;;;;;;;;;;;;344128;28;986;-79
2024/02/11 00:03:37;;;;;;;;;;;;;;;;;;342876;28;1077;-79
2024/02/11 00:03:47;;;;;;;;;;;;;;;;;;343006;28;1010;-78
2024/02/11 00:03:57;;;;;;;;;;;;;;;;;;343934;28;1331;-79
2024/02/11 00:04:07;;;;;;;;;;;;;;;;;;343053;28;1473;-79
2024/02/11 00:04:17;;;;;;;;;;;;;;;;;;342714;28;1298;-79
2024/02/11 00:04:28;;;;;;;;;;;;;;;;;;342859;28;1401;-78
2024/02/11 00:04:38;;;;;;;;;;;;;;;;;;341293;28;1466;-78
2024/02/11 00:04:48;;;;;;;;;;;;;;;;;;341695;29;1133;-78
2024/02/11 00:04:58;;;;;;;;;;;;;;;;;;340233;29;1018;-78
2024/02/11 00:05:10;;;;;;;;;;;;;;;;;;340276;29;1057;-79
2024/02/11 00:05:21;;;;;;;;;;;;;;;;;;340103;29;999;-79
2024/02/11 00:05:31;;;;;;;;;;;;;;;;;;341258;29;1325;-78
2024/02/11 00:05:43;;;;;;;;;;;;;;;;;;341452;29;1041;-78
2024/02/11 00:05:57;;;;;;;;;;;;;;;;;;342342;28;1622;-79
2024/02/11 00:06:11;;;;;;;;;;;;;;;;;;341896;28;1323;-79
2024/02/11 00:06:21;;;;;;;;;;;;;;;;;;341679;29;982;-79
2024/02/11 00:06:31;;;;;;;;;;;;;;;;;;339976;29;1463;-79
2024/02/11 00:06:41;;;;;;;;;;;;;;;;;;340413;29;951;-78
2024/02/11 00:06:52;;;;;;;;;;;;;;;;;;341503;29;1206;-79
2024/02/11 00:07:02;;;;;;;;;;;;;;;;;;341682;29;915;-79
2024/02/11 00:07:12;;;;;;;;;;;;;;;;;;342693;28;1102;-79
2024/02/11 00:07:22;;;;;;;;;;;;;;;;;;344325;28;1286;-78
2024/02/11 00:07:33;;;;;;;;;;;;;;;;;;344208;28;1029;-78
2024/02/11 00:07:43;;;;;;;;;;;;;;;;;;344391;28;836;-79
2024/02/11 00:07:53;;;;;;;;;;;;;;;;;;342834;28;1057;-78
2024/02/11 00:08:04;;;;;;;;;;;;;;;;;;344428;28;1001;-78
2024/02/11 00:08:14;;;;;;;;;;;;;;;;;;344149;28;970;-79
2024/02/11 00:08:24;;;;;;;;;;;;;;;;;;344335;28;1114;-79
2024/02/11 00:08:38;;;;;;;;;;;;;;;;;;343523;28;971;-79
2024/02/11 00:08:49;;;;;;;;;;;;;;;;;;344184;28;1175;-78
2024/02/11 00:09:00;;;;;;;;;;;;;;;;;;344322;28;1010;-79
2024/02/11 00:09:10;;;;;;;;;;;;;;;;;;342996;28;1054;-79
2024/02/11 00:09:21;;;;;;;;;;;;;;;;;;342872;28;994;-78
2024/02/11 00:09:31;;;;;;;;;;;;;;;;;;343001;28;1001;-79
2024/02/11 00:09:41;;;;;;;;;;;;;;;;;;343732;28;1331;-79
2024/02/11 00:09:51;;;;;;;;;;;;;;;;;;344379;28;962;-79
2024/02/11 00:10:02;;;;;;;;;;;;;;;;;;345087;28;1007;-79
2024/02/11 00:10:14;;;;;;;;;;;;;;;;;;345722;28;1017;-79
2024/02/11 00:10:24;;;;;;;;;;;;;;;;;;345618;28;1089;-79
2024/02/11 00:10:35;;;;;;;;;;;;;;;;;;345369;28;1327;-79
2024/02/11 00:10:46;;;;;;;;;;;;;;;;;;342838;28;1334;-79
2024/02/11 00:10:56;;;;;;;;;;;;;;;;;;341396;29;1327;-79
2024/02/11 00:11:07;;;;;;;;;;;;;;;;;;341665;29;975;-79
2024/02/11 00:11:17;;;;;;;;;;;;;;;;;;341529;29;955;-78
2024/02/11 00:11:28;;;;;;;;;;;;;;;;;;341642;29;1188;-79
2024/02/11 00:11:38;;;;;;;;;;;;;;;;;;341390;29;1361;-79
2024/02/11 00:11:49;;;;;;;;;;;;;;;;;;341740;29;982;-79
2024/02/11 00:11:59;;;;;;;;;;;;;;;;;;342723;28;1094;-78
2024/02/11 00:12:09;;;;;;;;;;;;;;;;;;342882;28;1288;-79
2024/02/11 00:12:19;;;;;;;;;;;;;;;;;;341531;28;1964;-79
2024/02/11 00:12:30;;;;;;;;;;;;;;;;;;342998;28;789;-79
2024/02/11 00:12:41;;;;;;;;;;;;;;;;;;341507;29;844;-79
2024/02/11 00:12:51;;;;;;;;;;;;;;;;;;341650;28;780;-78
2024/02/11 00:13:01;;;;;;;;;;;;;;;;;;341498;29;967;-78
2024/02/11 00:13:12;;;;;;;;;;;;;;;;;;340296;29;991;-79
2024/02/11 00:13:22;;;;;;;;;;;;;;;;;;341624;28;1046;-79
2024/02/11 00:13:32;;;;;;;;;;;;;;;;;;341907;28;1102;-78
2024/02/11 00:13:43;;;;;;;;;;;;;;;;;;341470;28;1196;-78
2024/02/11 00:13:53;;;;;;;;;;;;;;;;;;341353;29;1403;-79
2024/02/11 00:14:03;;;;;;;;;;;;;;;;;;342972;28;1314;-79
2024/02/11 00:14:14;;;;;;;;;;;;;;;;;;342710;28;1021;-79
2024/02/11 00:14:26;;;;;;;;;;;;;;;;;;343029;28;1030;-78
2024/02/11 00:14:37;;;;;;;;;;;;;;;;;;342922;28;1606;-79
2024/02/11 00:14:47;;;;;;;;;;;;;;;;;;341437;29;978;-79
2024/02/11 00:14:57;;;;;;;;;;;;;;;;;;341378;28;1249;-78
2024/02/11 00:15:08;;;;;;;;;;;;;;;;;;342875;28;1097;-79
2024/02/11 00:15:18;;;;;;;;;;;;;;;;;;342801;28;1331;-79
2024/02/11 00:15:29;;;;;;;;;;;;;;;;;;342502;28;1375;-78
2024/02/11 00:15:39;;;;;;;;;;;;;;;;;;341453;29;931;-78
2024/02/11 00:15:49;;;;;;;;;;;;;;;;;;342840;28;1291;-79
2024/02/11 00:16:00;;;;;;;;;;;;;;;;;;342918;28;1348;-79
2024/02/11 00:16:11;;;;;;;;;;;;;;;;;;342922;28;1017;-79
2024/02/11 00:16:23;;;;;;;;;;;;;;;;;;344325;28;1345;-79
2024/02/11 00:16:33;;;;;;;;;;;;;;;;;;344139;28;994;-79
2024/02/11 00:16:44;;;;;;;;;;;;;;;;;;344204;28;1019;-79
2024/02/11 00:16:59;;;;;;;;;;;;;;;;;;344121;28;1046;-79
2024/02/11 00:17:10;;;;;;;;;;;;;;;;;;344239;28;1181;-79
2024/02/11 00:17:20;;;;;;;;;;;;;;;;;;344194;28;847;-79
2024/02/11 00:17:30;;;;;;;;;;;;;;;;;;343048;28;1022;-79
2024/02/11 00:17:43;;;;;;;;;;;;;;;;;;342750;28;1303;-79
2024/02/11 00:17:53;;;;;;;;;;;;;;;;;;343081;28;1002;-79
2024/02/11 00:18:05;;;;;;;;;;;;;;;;;;342790;28;847;-79
2024/02/11 00:18:17;;;;;;;;;;;;;;;;;;342967;28;1178;-79
2024/02/11 00:18:30;;;;;;;;;;;;;;;;;;342893;28;1126;-78
2024/02/11 00:18:41;;;;;;;;;;;;;;;;;;342757;28;1033;-79
2024/02/11 00:18:52;;;;;;;;;;;;;;;;;;343002;28;1010;-79
2024/02/11 00:19:02;;;;;;;;;;;;;;;;;;342709;28;1361;-79
2024/02/11 00:19:12;;;;;;;;;;;;;;;;;;344265;28;967;-79
2024/02/11 00:19:24;;;;;;;;;;;;;;;;;;344106;28;1038;-79
2024/02/11 00:19:35;;;;;;;;;;;;;;;;;;342888;28;1359;-79
2024/02/11 00:19:45;;;;;;;;;;;;;;;;;;342611;28;1441;-79
2024/02/11 00:19:56;;;;;;;;;;;;;;;;;;340316;29;852;-79
2024/02/11 00:20:09;;;;;;;;;;;;;;;;;;341133;29;1199;-79
2024/02/11 00:20:20;;;;;;;;;;;;;;;;;;341516;28;1383;-79
2024/02/11 00:20:30;;;;;;;;;;;;;;;;;;342786;28;1348;-79
2024/02/11 00:20:40;;;;;;;;;;;;;;;;;;341196;29;1663;-78
2024/02/11 00:20:51;;;;;;;;;;;;;;;;;;342829;28;974;-79
2024/02/11 00:21:01;;;;;;;;;;;;;;;;;;342995;28;1265;-78
2024/02/11 00:21:13;;;;;;;;;;;;;;;;;;342720;28;1041;-79
2024/02/11 00:21:23;;;;;;;;;;;;;;;;;;341695;29;773;-79
2024/02/11 00:21:34;;;;;;;;;;;;;;;;;;341438;29;971;-79
2024/02/11 00:21:44;;;;;;;;;;;;;;;;;;340382;29;1199;-79
2024/02/11 00:21:54;;;;;;;;;;;;;;;;;;341378;29;1158;-78
2024/02/11 00:22:04;;;;;;;;;;;;;;;;;;341740;29;876;-78
2024/02/11 00:22:14;;;;;;;;;;;;;;;;;;341378;29;1306;-79
2024/02/11 00:22:25;;;;;;;;;;;;;;;;;;342888;28;1328;-79
2024/02/11 00:22:37;;;;;;;;;;;;;;;;;;342191;28;1009;-78
2024/02/11 00:22:48;;;;;;;;;;;;;;;;;;343042;28;824;-78
2024/02/11 00:23:00;;;;;;;;;;;;;;;;;;345413;28;1196;-79
2024/02/11 00:23:12;;;;;;;;;;;;;;;;;;344061;28;1172;-79
2024/02/11 00:23:22;;;;;;;;;;;;;;;;;;344047;28;1224;-78
2024/02/11 00:23:34;;;;;;;;;;;;;;;;;;342612;28;1356;-78
2024/02/11 00:23:45;;;;;;;;;;;;;;;;;;343024;28;966;-79
2024/02/11 00:23:58;;;;;;;;;;;;;;;;;;341473;28;1372;-79
2024/02/11 00:24:08;;;;;;;;;;;;;;;;;;342994;28;970;-78
2024/02/11 00:24:19;;;;;;;;;;;;;;;;;;341427;29;1181;-78
2024/02/11 00:24:30;;;;;;;;;;;;;;;;;;342911;28;1338;-79
2024/02/11 00:24:40;;;;;;;;;;;;;;;;;;342918;28;879;-79
2024/02/11 00:24:50;;;;;;;;;;;;;;;;;;341547;29;1098;-78
2024/02/11 00:25:04;;;;;;;;;;;;;;;;;;342714;28;1367;-79
2024/02/11 00:25:16;;;;;;;;;;;;;;;;;;342728;28;1339;-78
2024/02/11 00:25:27;;;;;;;;;;;;;;;;;;340407;29;1336;-79
2024/02/11 00:25:38;;;;;;;;;;;;;;;;;;340364;29;832;-79
2024/02/11 00:25:51;;;;;;;;;;;;;;;;;;340293;29;1268;-78
2024/02/11 00:26:02;;;;;;;;;;;;;;;;;;340071;29;1003;-79
2024/02/11 00:26:13;;;;;;;;;;;;;;;;;;340372;29;899;-78
2024/02/11 00:26:23;;;;;;;;;;;;;;;;;;340111;29;1030;-79
2024/02/11 00:26:33;;;;;;;;;;;;;;;;;;339977;29;1345;-78
2024/02/11 00:26:43;;;;;;;;;;;;;;;;;;341365;29;1280;-79
2024/02/11 00:26:54;;;;;;;;;;;;;;;;;;341606;29;1260;-79
2024/02/11 00:27:04;;;;;;;;;;;;;;;;;;342828;28;1030;-78
2024/02/11 00:27:14;;;;;;;;;;;;;;;;;;342974;28;1006;-78
2024/02/11 00:27:24;;;;;;;;;;;;;;;;;;342644;28;1145;-78
2024/02/11 00:27:35;;;;;;;;;;;;;;;;;;342916;28;1010;-78
2024/02/11 00:27:49;;;;;;;;;;;;;;;;;;341898;28;1458;-78
2024/02/11 00:28:00;;;;;;;;;;;;;;;;;;340666;29;1708;-79
2024/02/11 00:28:10;;;;;;;;;;;;;;;;;;341536;28;1118;-78
2024/02/11 00:28:25;;;;;;;;;;;;;;;;;;343018;28;1437;-78
2024/02/11 00:28:37;;;;;;;;;;;;;;;;;;344095;28;1331;-78
2024/02/11 00:28:48;;;;;;;;;;;;;;;;;;344130;28;1041;-78
2024/02/11 00:28:58;;;;;;;;;;;;;;;;;;344298;28;958;-78
2024/02/11 00:29:09;;;;;;;;;;;;;;;;;;344214;28;1226;-78
2024/02/11 00:29:19;;;;;;;;;;;;;;;;;;342953;28;1185;-79
2024/02/11 00:29:29;;;;;;;;;;;;;;;;;;344134;28;796;-78
2024/02/11 00:29:40;;;;;;;;;;;;;;;;;;342221;28;1177;-78
2024/02/11 00:29:51;;;;;;;;;;;;;;;;;;342415;28;1109;-79
2024/02/11 00:30:02;;;;;;;;;;;;;;;;;;340146;29;1405;-78
2024/02/11 00:30:12;;;;;;;;;;;;;;;;;;340194;29;859;-79
2024/02/11 00:30:23;;;;;;;;;;;;;;;;;;341072;29;1329;-78
2024/02/11 00:30:38;;;;;;;;;;;;;;;;;;340116;29;1023;-78
2024/02/11 00:30:48;;;;;;;;;;;;;;;;;;341566;29;1324;-79
2024/02/11 00:31:03;;;;;;;;;;;;;;;;;;341468;29;820;-78
2024/02/11 00:31:13;;;;;;;;;;;;;;;;;;341599;29;987;-78
2024/02/11 00:31:26;;;;;;;;;;;;;;;;;;342752;28;1042;-79
2024/02/11 00:31:38;;;;;;;;;;;;;;;;;;341253;28;1326;-78
2024/02/11 00:31:48;;;;;;;;;;;;;;;;;;341666;29;1002;-78
2024/02/11 00:31:59;;;;;;;;;;;;;;;;;;341433;29;1033;-78
2024/02/11 00:32:09;;;;;;;;;;;;;;;;;;342937;28;1230;-78
2024/02/11 00:32:19;;;;;;;;;;;;;;;;;;342740;28;1966;-78
2024/02/11 00:32:29;;;;;;;;;;;;;;;;;;343810;28;1469;-78
2024/02/11 00:32:39;;;;;;;;;;;;;;;;;;342787;28;1270;-78
2024/02/11 00:32:51;;;;;;;;;;;;;;;;;;343032;28;801;-79
2024/02/11 00:33:01;;;;;;;;;;;;;;;;;;341307;29;1031;-79
2024/02/11 00:33:11;;;;;;;;;;;;;;;;;;342988;28;1069;-78
2024/02/11 00:33:24;;;;;;;;;;;;;;;;;;342769;28;1364;-78
2024/02/11 00:33:34;;;;;;;;;;;;;;;;;;342889;28;1459;-78
2024/02/11 00:33:44;;;;;;;;;;;;;;;;;;341379;28;1155;-78
2024/02/11 00:33:56;;;;;;;;;;;;;;;;;;342045;28;1406;-78
2024/02/11 00:34:06;;;;;;;;;;;;;;;;;;343811;28;1359;-78
2024/02/11 00:34:16;;;;;;;;;;;;;;;;;;344372;28;1010;-78
2024/02/11 00:34:26;;;;;;;;;;;;;;;;;;344101;28;1042;-79
2024/02/11 00:34:37;;;;;;;;;;;;;;;;;;342801;28;1409;-78
2024/02/11 00:34:47;;;;;;;;;;;;;;;;;;342796;28;959;-78
2024/02/11 00:34:58;;;;;;;;;;;;;;;;;;342994;28;919;-79
2024/02/11 00:35:08;;;;;;;;;;;;;;;;;;342821;28;1033;-79
2024/02/11 00:35:18;;;;;;;;;;;;;;;;;;341546;28;1201;-78
2024/02/11 00:35:28;;;;;;;;;;;;;;;;;;343175;28;1630;-78
2024/02/11 00:35:40;;;;;;;;;;;;;;;;;;344228;28;1247;-79
2024/02/11 00:35:51;;;;;;;;;;;;;;;;;;343903;28;1342;-78
2024/02/11 00:36:01;;;;;;;;;;;;;;;;;;341620;28;1313;-79
2024/02/11 00:36:11;;;;;;;;;;;;;;;;;;341265;28;1295;-79
2024/02/11 00:36:22;;;;;;;;;;;;;;;;;;341487;29;1189;-79
2024/02/11 00:36:33;;;;;;;;;;;;;;;;;;340095;29;1212;-79
2024/02/11 00:36:43;;;;;;;;;;;;;;;;;;341240;29;1376;-78
2024/02/11 00:36:54;;;;;;;;;;;;;;;;;;341352;29;1193;-78
2024/02/11 00:37:06;;;;;;;;;;;;;;;;;;341673;29;1050;-79
2024/02/11 00:37:16;;;;;;;;;;;;;;;;;;341473;29;1011;-78
2024/02/11 00:37:29;;;;;;;;;;;;;;;;;;340274;29;1304;-78
2024/02/11 00:37:40;;;;;;;;;;;;;;;;;;341424;29;1010;-79
2024/02/11 00:37:50;;;;;;;;;;;;;;;;;;342941;28;970;-78
2024/02/11 00:38:00;;;;;;;;;;;;;;;;;;342757;28;988;-79
2024/02/11 00:38:13;;;;;;;;;;;;;;;;;;343019;28;998;-79
2024/02/11 00:38:23;;;;;;;;;;;;;;;;;;342820;28;986;-78
2024/02/11 00:38:33;;;;;;;;;;;;;;;;;;342917;28;1278;-79
2024/02/11 00:38:43;;;;;;;;;;;;;;;;;;342811;28;1010;-79
2024/02/11 00:38:53;;;;;;;;;;;;;;;;;;344274;28;1394;-79
2024/02/11 00:39:05;;;;;;;;;;;;;;;;;;343472;28;1360;-79
2024/02/11 00:39:15;;;;;;;;;;;;;;;;;;342449;28;1404;-79
2024/02/11 00:39:25;;;;;;;;;;;;;;;;;;342705;28;1198;-79
2024/02/11 00:39:36;;;;;;;;;;;;;;;;;;344094;28;1196;-79
2024/02/11 00:39:46;;;;;;;;;;;;;;;;;;344061;28;1026;-79
2024/02/11 00:39:56;;;;;;;;;;;;;;;;;;344189;28;971;-79
2024/02/11 00:40:07;;;;;;;;;;;;;;;;;;344040;28;1006;-78
2024/02/11 00:40:17;;;;;;;;;;;;;;;;;;344178;28;1248;-78
2024/02/11 00:40:28;;;;;;;;;;;;;;;;;;344019;28;895;-79
2024/02/11 00:40:38;;;;;;;;;;;;;;;;;;344192;28;1351;-79
2024/02/11 00:40:48;;;;;;;;;;;;;;;;;;342656;28;1336;-78
2024/02/11 00:40:59;;;;;;;;;;;;;;;;;;342812;28;1400;-79
2024/02/11 00:41:09;;;;;;;;;;;;;;;;;;342101;28;1215;-79
2024/02/11 00:41:19;;;;;;;;;;;;;;;;;;342997;28;903;-78
2024/02/11 00:41:29;;;;;;;;;;;;;;;;;;343645;28;1366;-79
2024/02/11 00:41:40;;;;;;;;;;;;;;;;;;342932;28;1268;-78
2024/02/11 00:41:51;;;;;;;;;;;;;;;;;;342607;28;1381;-79
2024/02/11 00:42:01;;;;;;;;;;;;;;;;;;342849;28;983;-78
2024/02/11 00:42:17;;;;;;;;;;;;;;;;;;342787;28;1018;-79
2024/02/11 00:42:27;;;;;;;;;;;;;;;;;;342759;28;1354;-78
2024/02/11 00:42:37;;;;;;;;;;;;;;;;;;341600;28;1037;-79
2024/02/11 00:42:47;;;;;;;;;;;;;;;;;;342532;28;1404;-79
2024/02/11 00:42:59;;;;;;;;;;;;;;;;;;344133;28;1343;-78
2024/02/11 00:43:09;;;;;;;;;;;;;;;;;;343971;28;1295;-78
2024/02/11 00:43:20;;;;;;;;;;;;;;;;;;344262;28;1053;-79
2024/02/11 00:43:30;;;;;;;;;;;;;;;;;;344152;28;1045;-78
2024/02/11 00:43:41;;;;;;;;;;;;;;;;;;343700;28;1338;-78
2024/02/11 00:43:52;;;;;;;;;;;;;;;;;;342735;28;1259;-79
2024/02/11 00:44:02;;;;;;;;;;;;;;;;;;344131;28;1319;-79
2024/02/11 00:44:12;;;;;;;;;;;;;;;;;;342683;28;947;-79
2024/02/11 00:44:22;;;;;;;;;;;;;;;;;;342869;28;1243;-79
2024/02/11 00:44:34;;;;;;;;;;;;;;;;;;342792;28;1017;-78
2024/02/11 00:44:44;;;;;;;;;;;;;;;;;;344297;28;1014;-78
2024/02/11 00:44:54;;;;;;;;;;;;;;;;;;344150;28;970;-79
2024/02/11 00:45:05;;;;;;;;;;;;;;;;;;343419;28;1311;-78
2024/02/11 00:45:15;;;;;;;;;;;;;;;;;;342762;28;986;-79
2024/02/11 00:45:29;;;;;;;;;;;;;;;;;;341540;28;1171;-79
2024/02/11 00:45:39;;;;;;;;;;;;;;;;;;341490;29;1010;-79
2024/02/11 00:45:49;;;;;;;;;;;;;;;;;;344195;28;1319;-79
2024/02/11 00:45:59;;;;;;;;;;;;;;;;;;342605;28;1536;-78
2024/02/11 00:46:09;;;;;;;;;;;;;;;;;;341379;29;1251;-79
2024/02/11 00:46:20;;;;;;;;;;;;;;;;;;341384;28;879;-79
2024/02/11 00:46:30;;;;;;;;;;;;;;;;;;341683;29;872;-79
2024/02/11 00:46:40;;;;;;;;;;;;;;;;;;341433;29;1419;-78
2024/02/11 00:46:50;;;;;;;;;;;;;;;;;;343026;28;1041;-79
2024/02/11 00:47:02;;;;;;;;;;;;;;;;;;342824;28;1069;-79
2024/02/11 00:47:12;;;;;;;;;;;;;;;;;;343026;28;854;-79
2024/02/11 00:47:23;;;;;;;;;;;;;;;;;;342859;28;975;-79
2024/02/11 00:47:35;;;;;;;;;;;;;;;;;;342994;28;1057;-79
2024/02/11 00:47:47;;;;;;;;;;;;;;;;;;343996;28;1304;-79
2024/02/11 00:47:59;;;;;;;;;;;;;;;;;;345657;28;1065;-79
2024/02/11 00:48:10;;;;;;;;;;;;;;;;;;344089;28;902;-79
2024/02/11 00:48:22;;;;;;;;;;;;;;;;;;344289;28;752;-79
2024/02/11 00:48:33;;;;;;;;;;;;;;;;;;341533;29;1205;-79
2024/02/11 00:48:45;;;;;;;;;;;;;;;;;;340283;29;1306;-78
2024/02/11 00:48:56;;;;;;;;;;;;;;;;;;340290;29;987;-79
2024/02/11 00:49:07;;;;;;;;;;;;;;;;;;340185;29;840;-78
2024/02/11 00:49:18;;;;;;;;;;;;;;;;;;343320;28;1186;-78
2024/02/11 00:49:28;;;;;;;;;;;;;;;;;;344182;28;966;-79
2024/02/11 00:49:38;;;;;;;;;;;;;;;;;;344358;28;1033;-79
2024/02/11 00:49:48;;;;;;;;;;;;;;;;;;342677;28;1264;-78
2024/02/11 00:49:59;;;;;;;;;;;;;;;;;;341562;29;1505;-79
2024/02/11 00:50:11;;;;;;;;;;;;;;;;;;342605;28;1553;-79
2024/02/11 00:50:21;;;;;;;;;;;;;;;;;;342803;28;1023;-78
2024/02/11 00:50:32;;;;;;;;;;;;;;;;;;342786;28;824;-79
2024/02/11 00:50:43;;;;;;;;;;;;;;;;;;342124;28;1550;-79
2024/02/11 00:50:54;;;;;;;;;;;;;;;;;;340304;29;1285;-79
2024/02/11 00:51:04;;;;;;;;;;;;;;;;;;341590;29;1410;-79
2024/02/11 00:51:14;;;;;;;;;;;;;;;;;;341471;29;959;-79
2024/02/11 00:51:27;;;;;;;;;;;;;;;;;;340360;29;1045;-79
2024/02/11 00:51:37;;;;;;;;;;;;;;;;;;340154;29;1017;-79
2024/02/11 00:51:48;;;;;;;;;;;;;;;;;;342911;28;1166;-78
2024/02/11 00:51:58;;;;;;;;;;;;;;;;;;341532;29;867;-78
2024/02/11 00:52:10;;;;;;;;;;;;;;;;;;341665;29;1064;-79
2024/02/11 00:52:20;;;;;;;;;;;;;;;;;;339965;29;1899;-79
2024/02/11 00:52:31;;;;;;;;;;;;;;;;;;340160;29;1237;-78
2024/02/11 00:52:41;;;;;;;;;;;;;;;;;;340169;29;843;-79
2024/02/11 00:52:51;;;;;;;;;;;;;;;;;;340341;29;1029;-78
2024/02/11 00:53:04;;;;;;;;;;;;;;;;;;340113;29;1073;-79
2024/02/11 00:53:14;;;;;;;;;;;;;;;;;;340321;29;831;-79
2024/02/11 00:53:25;;;;;;;;;;;;;;;;;;340161;29;994;-78
2024/02/11 00:53:36;;;;;;;;;;;;;;;;;;341668;29;998;-78
2024/02/11 00:53:48;;;;;;;;;;;;;;;;;;342787;28;971;-78
2024/02/11 00:53:59;;;;;;;;;;;;;;;;;;341521;29;1215;-79
2024/02/11 00:54:09;;;;;;;;;;;;;;;;;;341500;28;1364;-78
2024/02/11 00:54:20;;;;;;;;;;;;;;;;;;341508;29;1226;-79
2024/02/11 00:54:37;;;;;;;;;;;;;;;;;;341383;29;1419;-79
2024/02/11 00:54:48;;;;;;;;;;;;;;;;;;340099;29;943;-78
2024/02/11 00:54:59;;;;;;;;;;;;;;;;;;342912;28;1229;-79
2024/02/11 00:55:14;;;;;;;;;;;;;;;;;;342795;28;1048;-79
2024/02/11 00:55:24;;;;;;;;;;;;;;;;;;342781;28;1161;-79
2024/02/11 00:55:35;;;;;;;;;;;;;;;;;;342881;28;1180;-79
2024/02/11 00:55:46;;;;;;;;;;;;;;;;;;341123;29;1464;-79
2024/02/11 00:55:56;;;;;;;;;;;;;;;;;;341599;29;1229;-79
2024/02/11 00:56:08;;;;;;;;;;;;;;;;;;342681;28;963;-78
2024/02/11 00:56:20;;;;;;;;;;;;;;;;;;342383;28;1292;-79
2024/02/11 00:56:31;;;;;;;;;;;;;;;;;;342667;28;935;-79
2024/02/11 00:56:41;;;;;;;;;;;;;;;;;;342916;28;1038;-79
2024/02/11 00:56:54;;;;;;;;;;;;;;;;;;341310;29;1262;-78
2024/02/11 00:57:04;;;;;;;;;;;;;;;;;;341568;29;1363;-78
2024/02/11 00:57:16;;;;;;;;;;;;;;;;;;341355;29;1307;-79
2024/02/11 00:57:26;;;;;;;;;;;;;;;;;;341428;29;1513;-78
2024/02/11 00:57:37;;;;;;;;;;;;;;;;;;342598;28;951;-78
2024/02/11 00:57:47;;;;;;;;;;;;;;;;;;342331;28;1295;-78
2024/02/11 00:57:57;;;;;;;;;;;;;;;;;;342510;28;1364;-79
2024/02/11 00:58:09;;;;;;;;;;;;;;;;;;341641;29;1046;-78
2024/02/11 00:58:20;;;;;;;;;;;;;;;;;;343287;28;1098;-78
2024/02/11 00:58:33;;;;;;;;;;;;;;;;;;341449;29;1249;-78
2024/02/11 00:58:43;;;;;;;;;;;;;;;;;;342845;28;1167;-79
2024/02/11 00:58:53;;;;;;;;;;;;;;;;;;341198;29;1224;-79
2024/02/11 00:59:03;;;;;;;;;;;;;;;;;;341462;29;1043;-78
2024/02/11 00:59:14;;;;;;;;;;;;;;;;;;344111;28;1303;-79
2024/02/11 00:59:24;;;;;;;;;;;;;;;;;;345626;28;1084;-79
2024/02/11 00:59:35;;;;;;;;;;;;;;;;;;345543;28;1089;-79
2024/02/11 00:59:45;;;;;;;;;;;;;;;;;;344299;28;922;-79
2024/02/11 00:59:58;;;;;;;;;;;;;;;;;;342805;28;1171;-78
2024/02/11 01:00:11;;;;;;;;;;;;;;;;;;342981;28;990;-79
2024/02/11 01:00:22;;;;;;;;;;;;;;;;;;342713;28;891;-79
2024/02/11 01:00:33;;;;;;;;;;;;;;;;;;342892;28;1336;-78
2024/02/11 01:00:46;;;;;;;;;;;;;;;;;;341048;29;1479;-79
2024/02/11 01:00:56;;;;;;;;;;;;;;;;;;341549;29;1194;-78
2024/02/11 01:01:07;;;;;;;;;;;;;;;;;;342702;28;916;-79
2024/02/11 01:01:17;;;;;;;;;;;;;;;;;;344344;28;847;-79
2024/02/11 01:01:27;;;;;;;;;;;;;;;;;;343892;28;1328;-79
2024/02/11 01:01:40;;;;;;;;;;;;;;;;;;343010;28;1252;-79
2024/02/11 01:01:51;;;;;;;;;;;;;;;;;;342857;28;1395;-78
2024/02/11 01:02:01;;;;;;;;;;;;;;;;;;342808;28;1399;-79
2024/02/11 01:02:11;;;;;;;;;;;;;;;;;;341476;29;801;-79
2024/02/11 01:02:21;;;;;;;;;;;;;;;;;;342527;28;1379;-78
2024/02/11 01:02:32;;;;;;;;;;;;;;;;;;342796;28;757;-79
2024/02/11 01:02:42;;;;;;;;;;;;;;;;;;343021;28;915;-79
2024/02/11 01:02:53;;;;;;;;;;;;;;;;;;342654;28;943;-79
2024/02/11 01:03:05;;;;;;;;;;;;;;;;;;342870;28;1344;-79
2024/02/11 01:03:15;;;;;;;;;;;;;;;;;;342978;28;1019;-78
2024/02/11 01:03:25;;;;;;;;;;;;;;;;;;342964;28;1010;-79
2024/02/11 01:03:36;;;;;;;;;;;;;;;;;;342837;28;931;-79
2024/02/11 01:03:47;;;;;;;;;;;;;;;;;;346791;28;1199;-79
2024/02/11 01:03:57;;;;;;;;;;;;;;;;;;345526;28;1094;-78
2024/02/11 01:04:07;;;;;;;;;;;;;;;;;;345026;28;1307;-79
2024/02/11 01:04:18;;;;;;;;;;;;;;;;;;344224;28;998;-79
2024/02/11 01:04:28;;;;;;;;;;;;;;;;;;344240;28;1206;-79
2024/02/11 01:04:39;;;;;;;;;;;;;;;;;;344184;28;1057;-79
2024/02/11 01:04:49;;;;;;;;;;;;;;;;;;343719;28;1021;-79
2024/02/11 01:04:59;;;;;;;;;;;;;;;;;;341885;28;1705;-79
2024/02/11 01:05:12;;;;;;;;;;;;;;;;;;342964;28;1032;-79
2024/02/11 01:05:22;;;;;;;;;;;;;;;;;;344220;28;1193;-79
2024/02/11 01:05:36;;;;;;;;;;;;;;;;;;342597;28;1287;-78
2024/02/11 01:05:46;;;;;;;;;;;;;;;;;;342816;28;1303;-79
2024/02/11 01:05:56;;;;;;;;;;;;;;;;;;341400;28;1356;-79
2024/02/11 01:06:06;;;;;;;;;;;;;;;;;;341632;29;1062;-78
2024/02/11 01:06:16;;;;;;;;;;;;;;;;;;341436;29;1002;-79
2024/02/11 01:06:27;;;;;;;;;;;;;;;;;;340240;29;1293;-79
2024/02/11 01:06:37;;;;;;;;;;;;;;;;;;341212;29;1325;-79
2024/02/11 01:06:47;;;;;;;;;;;;;;;;;;344270;28;1282;-79
2024/02/11 01:06:58;;;;;;;;;;;;;;;;;;343963;28;1300;-79
2024/02/11 01:07:08;;;;;;;;;;;;;;;;;;345239;28;1132;-79
2024/02/11 01:07:18;;;;;;;;;;;;;;;;;;344105;28;967;-79
2024/02/11 01:07:30;;;;;;;;;;;;;;;;;;344347;28;874;-79
2024/02/11 01:07:40;;;;;;;;;;;;;;;;;;345488;28;1014;-79
2024/02/11 01:07:51;;;;;;;;;;;;;;;;;;345654;28;1017;-79
2024/02/11 01:08:02;;;;;;;;;;;;;;;;;;341425;29;1288;-79
2024/02/11 01:08:12;;;;;;;;;;;;;;;;;;343005;28;1038;-79
2024/02/11 01:08:25;;;;;;;;;;;;;;;;;;343953;28;1299;-79
2024/02/11 01:08:36;;;;;;;;;;;;;;;;;;345679;28;871;-79
2024/02/11 01:08:49;;;;;;;;;;;;;;;;;;343919;28;1200;-79
2024/02/11 01:08:59;;;;;;;;;;;;;;;;;;342842;28;1286;-79
2024/02/11 01:09:10;;;;;;;;;;;;;;;;;;342835;28;986;-79
2024/02/11 01:09:20;;;;;;;;;;;;;;;;;;341613;28;1046;-79
2024/02/11 01:09:31;;;;;;;;;;;;;;;;;;341474;29;986;-79
2024/02/11 01:09:42;;;;;;;;;;;;;;;;;;341562;29;1364;-79
2024/02/11 01:09:52;;;;;;;;;;;;;;;;;;340280;29;1442;-79
2024/02/11 01:10:03;;;;;;;;;;;;;;;;;;340358;29;954;-79
2024/02/11 01:10:14;;;;;;;;;;;;;;;;;;343945;28;1364;-79
2024/02/11 01:10:25;;;;;;;;;;;;;;;;;;344201;28;1133;-79
2024/02/11 01:10:35;;;;;;;;;;;;;;;;;;344020;28;1336;-79
2024/02/11 01:10:46;;;;;;;;;;;;;;;;;;344288;28;978;-79
2024/02/11 01:10:58;;;;;;;;;;;;;;;;;;344153;28;1067;-79
2024/02/11 01:11:09;;;;;;;;;;;;;;;;;;342602;28;1233;-79
2024/02/11 01:11:19;;;;;;;;;;;;;;;;;;342959;28;1002;-79
2024/02/11 01:11:29;;;;;;;;;;;;;;;;;;340087;29;1240;-79
2024/02/11 01:11:40;;;;;;;;;;;;;;;;;;341656;29;951;-79
2024/02/11 01:11:50;;;;;;;;;;;;;;;;;;342463;28;1541;-79
2024/02/11 01:12:00;;;;;;;;;;;;;;;;;;342691;28;1088;-79
2024/02/11 01:12:11;;;;;;;;;;;;;;;;;;342820;28;1014;-79
2024/02/11 01:12:23;;;;;;;;;;;;;;;;;;344166;28;1987;-79
2024/02/11 01:12:33;;;;;;;;;;;;;;;;;;342733;28;1223;-79
2024/02/11 01:12:44;;;;;;;;;;;;;;;;;;342903;28;963;-79
2024/02/11 01:12:54;;;;;;;;;;;;;;;;;;342799;28;1275;-78
2024/02/11 01:13:04;;;;;;;;;;;;;;;;;;344302;28;1002;-79
2024/02/11 01:13:15;;;;;;;;;;;;;;;;;;343942;28;1221;-79
2024/02/11 01:13:26;;;;;;;;;;;;;;;;;;344277;28;1009;-79
2024/02/11 01:13:36;;;;;;;;;;;;;;;;;;343949;28;971;-79
2024/02/11 01:13:46;;;;;;;;;;;;;;;;;;344319;28;959;-79
2024/02/11 01:13:57;;;;;;;;;;;;;;;;;;344111;28;998;-78
2024/02/11 01:14:08;;;;;;;;;;;;;;;;;;344292;28;1366;-79
2024/02/11 01:14:21;;;;;;;;;;;;;;;;;;342694;28;1097;-79
2024/02/11 01:14:31;;;;;;;;;;;;;;;;;;342973;28;891;-79
2024/02/11 01:14:41;;;;;;;;;;;;;;;;;;344014;28;1366;-79
2024/02/11 01:14:58;;;;;;;;;;;;;;;;;;344223;28;1289;-78
2024/02/11 01:15:11;;;;;;;;;;;;;;;;;;342783;28;1037;-79
2024/02/11 01:15:26;;;;;;;;;;;;;;;;;;345136;28;1034;-79
2024/02/11 01:15:37;;;;;;;;;;;;;;;;;;345593;28;1081;-78
2024/02/11 01:15:47;;;;;;;;;;;;;;;;;;345327;28;1057;-78
2024/02/11 01:15:57;;;;;;;;;;;;;;;;;;344315;28;887;-79
2024/02/11 01:16:07;;;;;;;;;;;;;;;;;;344055;28;1030;-79
2024/02/11 01:16:18;;;;;;;;;;;;;;;;;;344307;28;989;-79
2024/02/11 01:16:28;;;;;;;;;;;;;;;;;;344053;28;824;-78
2024/02/11 01:16:38;;;;;;;;;;;;;;;;;;342862;28;1420;-79
2024/02/11 01:16:49;;;;;;;;;;;;;;;;;;342749;28;1343;-79
2024/02/11 01:16:59;;;;;;;;;;;;;;;;;;342800;28;1276;-79
2024/02/11 01:17:09;;;;;;;;;;;;;;;;;;341322;29;1487;-79